sensor_id;sensor_type;location;lat;lon;timestamp;P1;durP1;ratioP1;P2;durP2;ratioP2
20615;SDS011;10467;42.338;23.552;2022-08-16T00:00:36;8.18;;;5.18;;
20615;SDS011;10467;42.338;23.552;2022-08-16T00:03:04;8.32;;;5.57;;
20615;SDS011;10467;42.338;23.552;2022-08-16T00:05:30;8.20;;;4.28;;
20615;SDS011;10467;42.338;23.552;2022-08-16T00:07:56;9.15;;;5.72;;
20615;SDS011;10467;42.338;23.552;2022-08-16T00:10:23;7.35;;;5.00;;
20615;SDS011;10467;42.338;23.552;2022-08-16T00:12:50;8.38;;;5.20;;
20615;SDS011;10467;42.338;23.552;2022-08-16T00:15:17;8.38;;;5.70;;
20615;SDS011;10467;42.338;23.552;2022-08-16T00:18:07;9.27;;;5.78;;
20615;SDS011;10467;42.338;23.552;2022-08-16T00:20:34;8.70;;;5.57;;
20615;SDS011;10467;42.338;23.552;2022-08-16T00:23:02;7.63;;;5.05;;
20615;SDS011;10467;42.338;23.552;2022-08-16T00:25:28;7.82;;;4.97;;
20615;SDS011;10467;42.338;23.552;2022-08-16T00:27:54;8.88;;;5.72;;
20615;SDS011;10467;42.338;23.552;2022-08-16T00:30:20;8.55;;;5.45;;
20615;SDS011;10467;42.338;23.552;2022-08-16T00:32:48;8.75;;;5.80;;
20615;SDS011;10467;42.338;23.552;2022-08-16T00:35:18;9.60;;;6.22;;
20615;SDS011;10467;42.338;23.552;2022-08-16T00:37:49;8.70;;;5.68;;
20615;SDS011;10467;42.338;23.552;2022-08-16T00:40:17;7.78;;;4.90;;
20615;SDS011;10467;42.338;23.552;2022-08-16T00:42:48;11.02;;;6.18;;
20615;SDS011;10467;42.338;23.552;2022-08-16T00:48:21;10.43;;;5.57;;
20615;SDS011;10467;42.338;23.552;2022-08-16T00:50:47;6.28;;;4.45;;
20615;SDS011;10467;42.338;23.552;2022-08-16T00:53:13;8.57;;;6.18;;
20615;SDS011;10467;42.338;23.552;2022-08-16T00:55:42;7.47;;;4.97;;
20615;SDS011;10467;42.338;23.552;2022-08-16T00:58:11;9.18;;;5.93;;
20615;SDS011;10467;42.338;23.552;2022-08-16T01:00:37;8.38;;;5.20;;
20615;SDS011;10467;42.338;23.552;2022-08-16T01:03:08;9.55;;;5.38;;
20615;SDS011;10467;42.338;23.552;2022-08-16T01:05:37;7.20;;;5.45;;
20615;SDS011;10467;42.338;23.552;2022-08-16T01:08:03;8.27;;;5.60;;
20615;SDS011;10467;42.338;23.552;2022-08-16T01:10:31;6.55;;;4.25;;
20615;SDS011;10467;42.338;23.552;2022-08-16T01:12:58;7.78;;;5.03;;
20615;SDS011;10467;42.338;23.552;2022-08-16T01:15:27;10.13;;;5.43;;
20615;SDS011;10467;42.338;23.552;2022-08-16T01:17:53;6.88;;;4.90;;
20615;SDS011;10467;42.338;23.552;2022-08-16T01:20:19;7.63;;;5.03;;
20615;SDS011;10467;42.338;23.552;2022-08-16T01:25:21;8.82;;;5.03;;
20615;SDS011;10467;42.338;23.552;2022-08-16T01:27:52;6.32;;;4.32;;
20615;SDS011;10467;42.338;23.552;2022-08-16T01:32:50;5.15;;;4.03;;
20615;SDS011;10467;42.338;23.552;2022-08-16T01:35:18;6.85;;;4.68;;
20615;SDS011;10467;42.338;23.552;2022-08-16T01:37:51;4.72;;;3.80;;
20615;SDS011;10467;42.338;23.552;2022-08-16T01:40:19;5.50;;;4.25;;
20615;SDS011;10467;42.338;23.552;2022-08-16T01:42:47;5.43;;;3.65;;
20615;SDS011;10467;42.338;23.552;2022-08-16T01:45:14;9.13;;;5.28;;
20615;SDS011;10467;42.338;23.552;2022-08-16T01:47:41;6.03;;;4.45;;
20615;SDS011;10467;42.338;23.552;2022-08-16T01:50:08;7.43;;;5.10;;
20615;SDS011;10467;42.338;23.552;2022-08-16T01:52:34;5.80;;;4.20;;
20615;SDS011;10467;42.338;23.552;2022-08-16T01:55:00;7.10;;;4.30;;
20615;SDS011;10467;42.338;23.552;2022-08-16T01:57:26;6.28;;;3.97;;
20615;SDS011;10467;42.338;23.552;2022-08-16T01:59:53;5.65;;;4.57;;
20615;SDS011;10467;42.338;23.552;2022-08-16T02:02:19;6.90;;;4.65;;
20615;SDS011;10467;42.338;23.552;2022-08-16T02:04:44;7.82;;;4.57;;
20615;SDS011;10467;42.338;23.552;2022-08-16T02:07:10;8.02;;;4.75;;
20615;SDS011;10467;42.338;23.552;2022-08-16T02:09:37;5.97;;;4.53;;
20615;SDS011;10467;42.338;23.552;2022-08-16T02:12:05;7.63;;;4.43;;
20615;SDS011;10467;42.338;23.552;2022-08-16T02:14:33;6.85;;;4.22;;
20615;SDS011;10467;42.338;23.552;2022-08-16T02:17:00;5.95;;;4.35;;
20615;SDS011;10467;42.338;23.552;2022-08-16T02:19:30;8.32;;;5.10;;
20615;SDS011;10467;42.338;23.552;2022-08-16T02:21:58;7.45;;;4.25;;
20615;SDS011;10467;42.338;23.552;2022-08-16T02:24:24;8.13;;;5.05;;
20615;SDS011;10467;42.338;23.552;2022-08-16T02:26:50;8.07;;;5.15;;
20615;SDS011;10467;42.338;23.552;2022-08-16T02:29:16;7.25;;;5.47;;
20615;SDS011;10467;42.338;23.552;2022-08-16T02:31:43;6.97;;;4.38;;
20615;SDS011;10467;42.338;23.552;2022-08-16T02:34:09;6.75;;;4.68;;
20615;SDS011;10467;42.338;23.552;2022-08-16T02:36:36;5.88;;;4.68;;
20615;SDS011;10467;42.338;23.552;2022-08-16T02:39:02;5.88;;;4.45;;
20615;SDS011;10467;42.338;23.552;2022-08-16T02:41:29;6.72;;;4.43;;
20615;SDS011;10467;42.338;23.552;2022-08-16T02:43:55;5.35;;;3.92;;
20615;SDS011;10467;42.338;23.552;2022-08-16T02:46:20;6.88;;;4.35;;
20615;SDS011;10467;42.338;23.552;2022-08-16T02:48:45;5.53;;;4.32;;
20615;SDS011;10467;42.338;23.552;2022-08-16T02:51:11;6.78;;;4.30;;
20615;SDS011;10467;42.338;23.552;2022-08-16T02:53:40;6.20;;;4.15;;
20615;SDS011;10467;42.338;23.552;2022-08-16T02:56:07;7.07;;;4.32;;
20615;SDS011;10467;42.338;23.552;2022-08-16T02:58:36;11.73;;;7.20;;
20615;SDS011;10467;42.338;23.552;2022-08-16T03:01:02;6.22;;;4.40;;
20615;SDS011;10467;42.338;23.552;2022-08-16T03:03:28;6.50;;;4.47;;
20615;SDS011;10467;42.338;23.552;2022-08-16T03:05:53;7.45;;;5.22;;
20615;SDS011;10467;42.338;23.552;2022-08-16T03:08:20;8.80;;;5.18;;
20615;SDS011;10467;42.338;23.552;2022-08-16T03:10:46;9.15;;;5.45;;
20615;SDS011;10467;42.338;23.552;2022-08-16T03:13:14;10.38;;;6.38;;
20615;SDS011;10467;42.338;23.552;2022-08-16T03:15:42;9.90;;;6.35;;
20615;SDS011;10467;42.338;23.552;2022-08-16T03:18:08;11.90;;;6.53;;
20615;SDS011;10467;42.338;23.552;2022-08-16T03:20:35;11.70;;;7.00;;
20615;SDS011;10467;42.338;23.552;2022-08-16T03:23:01;9.02;;;5.60;;
20615;SDS011;10467;42.338;23.552;2022-08-16T03:25:28;8.60;;;5.20;;
20615;SDS011;10467;42.338;23.552;2022-08-16T03:27:54;9.18;;;5.30;;
20615;SDS011;10467;42.338;23.552;2022-08-16T03:30:21;7.68;;;5.05;;
20615;SDS011;10467;42.338;23.552;2022-08-16T03:32:50;7.03;;;4.75;;
20615;SDS011;10467;42.338;23.552;2022-08-16T03:37:57;8.43;;;5.72;;
20615;SDS011;10467;42.338;23.552;2022-08-16T03:40:25;8.93;;;5.40;;
20615;SDS011;10467;42.338;23.552;2022-08-16T03:42:51;9.60;;;5.57;;
20615;SDS011;10467;42.338;23.552;2022-08-16T03:45:17;8.82;;;5.72;;
20615;SDS011;10467;42.338;23.552;2022-08-16T03:47:44;9.00;;;6.20;;
20615;SDS011;10467;42.338;23.552;2022-08-16T03:50:12;9.85;;;6.30;;
20615;SDS011;10467;42.338;23.552;2022-08-16T03:52:39;10.75;;;6.45;;
20615;SDS011;10467;42.338;23.552;2022-08-16T03:55:06;12.65;;;6.82;;
20615;SDS011;10467;42.338;23.552;2022-08-16T03:57:33;10.23;;;6.25;;
20615;SDS011;10467;42.338;23.552;2022-08-16T03:59:59;10.18;;;6.10;;
20615;SDS011;10467;42.338;23.552;2022-08-16T04:02:24;9.25;;;5.72;;
20615;SDS011;10467;42.338;23.552;2022-08-16T04:04:50;9.50;;;5.75;;
20615;SDS011;10467;42.338;23.552;2022-08-16T04:07:17;10.05;;;5.80;;
20615;SDS011;10467;42.338;23.552;2022-08-16T04:09:43;13.38;;;6.40;;
20615;SDS011;10467;42.338;23.552;2022-08-16T04:12:10;8.80;;;6.25;;
20615;SDS011;10467;42.338;23.552;2022-08-16T04:14:36;11.63;;;6.65;;
20615;SDS011;10467;42.338;23.552;2022-08-16T04:17:03;9.38;;;6.50;;
20615;SDS011;10467;42.338;23.552;2022-08-16T04:19:29;11.05;;;6.93;;
20615;SDS011;10467;42.338;23.552;2022-08-16T04:21:54;12.77;;;7.03;;
20615;SDS011;10467;42.338;23.552;2022-08-16T04:24:20;11.20;;;6.25;;
20615;SDS011;10467;42.338;23.552;2022-08-16T04:26:46;7.80;;;5.38;;
20615;SDS011;10467;42.338;23.552;2022-08-16T04:29:13;8.15;;;5.60;;
20615;SDS011;10467;42.338;23.552;2022-08-16T04:31:39;8.55;;;5.65;;
20615;SDS011;10467;42.338;23.552;2022-08-16T04:34:05;9.07;;;5.53;;
20615;SDS011;10467;42.338;23.552;2022-08-16T04:36:31;7.15;;;5.43;;
20615;SDS011;10467;42.338;23.552;2022-08-16T04:38:56;7.00;;;5.50;;
20615;SDS011;10467;42.338;23.552;2022-08-16T04:41:22;5.88;;;4.32;;
20615;SDS011;10467;42.338;23.552;2022-08-16T04:43:47;9.07;;;4.88;;
20615;SDS011;10467;42.338;23.552;2022-08-16T04:46:13;7.72;;;4.95;;
20615;SDS011;10467;42.338;23.552;2022-08-16T04:48:40;6.93;;;4.32;;
20615;SDS011;10467;42.338;23.552;2022-08-16T04:51:07;5.78;;;4.35;;
20615;SDS011;10467;42.338;23.552;2022-08-16T04:53:33;7.20;;;4.55;;
20615;SDS011;10467;42.338;23.552;2022-08-16T04:55:59;6.78;;;5.28;;
20615;SDS011;10467;42.338;23.552;2022-08-16T04:58:25;9.40;;;4.60;;
20615;SDS011;10467;42.338;23.552;2022-08-16T05:00:50;6.80;;;4.70;;
20615;SDS011;10467;42.338;23.552;2022-08-16T05:03:16;6.93;;;4.78;;
20615;SDS011;10467;42.338;23.552;2022-08-16T05:05:41;7.55;;;4.80;;
20615;SDS011;10467;42.338;23.552;2022-08-16T05:08:07;12.00;;;4.80;;
20615;SDS011;10467;42.338;23.552;2022-08-16T05:10:33;7.03;;;4.78;;
20615;SDS011;10467;42.338;23.552;2022-08-16T05:13:00;6.15;;;4.85;;
20615;SDS011;10467;42.338;23.552;2022-08-16T05:15:27;7.55;;;4.95;;
20615;SDS011;10467;42.338;23.552;2022-08-16T05:17:53;6.18;;;4.88;;
20615;SDS011;10467;42.338;23.552;2022-08-16T05:20:19;6.72;;;4.88;;
20615;SDS011;10467;42.338;23.552;2022-08-16T05:22:45;8.13;;;6.78;;
20615;SDS011;10467;42.338;23.552;2022-08-16T05:25:11;11.02;;;7.65;;
20615;SDS011;10467;42.338;23.552;2022-08-16T05:27:38;5.20;;;4.45;;
20615;SDS011;10467;42.338;23.552;2022-08-16T05:30:06;5.38;;;4.47;;
20615;SDS011;10467;42.338;23.552;2022-08-16T05:32:33;7.03;;;4.55;;
20615;SDS011;10467;42.338;23.552;2022-08-16T05:35:00;7.35;;;4.55;;
20615;SDS011;10467;42.338;23.552;2022-08-16T05:37:26;6.13;;;3.67;;
20615;SDS011;10467;42.338;23.552;2022-08-16T05:39:51;7.38;;;3.75;;
20615;SDS011;10467;42.338;23.552;2022-08-16T05:42:17;5.13;;;4.10;;
20615;SDS011;10467;42.338;23.552;2022-08-16T05:44:42;6.07;;;4.15;;
20615;SDS011;10467;42.338;23.552;2022-08-16T05:47:08;6.45;;;4.90;;
20615;SDS011;10467;42.338;23.552;2022-08-16T05:49:33;7.25;;;4.55;;
20615;SDS011;10467;42.338;23.552;2022-08-16T05:51:59;6.93;;;4.13;;
20615;SDS011;10467;42.338;23.552;2022-08-16T05:54:25;6.57;;;4.82;;
20615;SDS011;10467;42.338;23.552;2022-08-16T05:56:52;10.15;;;5.82;;
20615;SDS011;10467;42.338;23.552;2022-08-16T05:59:21;9.43;;;6.82;;
20615;SDS011;10467;42.338;23.552;2022-08-16T06:01:48;8.93;;;4.95;;
20615;SDS011;10467;42.338;23.552;2022-08-16T06:04:16;6.95;;;4.93;;
20615;SDS011;10467;42.338;23.552;2022-08-16T06:06:42;5.03;;;3.67;;
20615;SDS011;10467;42.338;23.552;2022-08-16T06:09:09;5.93;;;4.20;;
20615;SDS011;10467;42.338;23.552;2022-08-16T06:11:35;5.07;;;4.15;;
20615;SDS011;10467;42.338;23.552;2022-08-16T06:14:02;5.70;;;4.28;;
20615;SDS011;10467;42.338;23.552;2022-08-16T06:16:28;7.75;;;4.22;;
20615;SDS011;10467;42.338;23.552;2022-08-16T06:18:53;5.22;;;4.50;;
20615;SDS011;10467;42.338;23.552;2022-08-16T06:21:19;6.07;;;4.28;;
20615;SDS011;10467;42.338;23.552;2022-08-16T06:23:45;4.43;;;4.03;;
20615;SDS011;10467;42.338;23.552;2022-08-16T06:26:10;4.13;;;3.63;;
20615;SDS011;10467;42.338;23.552;2022-08-16T06:28:36;6.47;;;4.03;;
20615;SDS011;10467;42.338;23.552;2022-08-16T06:31:01;5.22;;;3.47;;
20615;SDS011;10467;42.338;23.552;2022-08-16T06:33:27;5.43;;;3.70;;
20615;SDS011;10467;42.338;23.552;2022-08-16T06:35:56;4.57;;;3.53;;
20615;SDS011;10467;42.338;23.552;2022-08-16T06:38:22;4.70;;;3.45;;
20615;SDS011;10467;42.338;23.552;2022-08-16T06:40:48;5.07;;;3.92;;
20615;SDS011;10467;42.338;23.552;2022-08-16T06:43:13;5.18;;;4.00;;
20615;SDS011;10467;42.338;23.552;2022-08-16T06:45:39;8.90;;;4.20;;
20615;SDS011;10467;42.338;23.552;2022-08-16T06:48:07;5.47;;;4.35;;
20615;SDS011;10467;42.338;23.552;2022-08-16T06:50:33;7.75;;;4.30;;
20615;SDS011;10467;42.338;23.552;2022-08-16T06:53:00;7.82;;;4.50;;
20615;SDS011;10467;42.338;23.552;2022-08-16T06:55:27;10.88;;;5.43;;
20615;SDS011;10467;42.338;23.552;2022-08-16T06:57:53;6.15;;;4.32;;
20615;SDS011;10467;42.338;23.552;2022-08-16T07:00:19;4.70;;;4.20;;
20615;SDS011;10467;42.338;23.552;2022-08-16T07:02:45;7.15;;;5.40;;
20615;SDS011;10467;42.338;23.552;2022-08-16T07:05:12;9.80;;;6.18;;
20615;SDS011;10467;42.338;23.552;2022-08-16T07:07:39;12.35;;;8.73;;
20615;SDS011;10467;42.338;23.552;2022-08-16T07:10:07;5.85;;;4.10;;
20615;SDS011;10467;42.338;23.552;2022-08-16T07:12:34;7.15;;;4.70;;
20615;SDS011;10467;42.338;23.552;2022-08-16T07:15:00;10.55;;;6.10;;
20615;SDS011;10467;42.338;23.552;2022-08-16T07:17:27;6.88;;;4.93;;
20615;SDS011;10467;42.338;23.552;2022-08-16T07:19:53;6.20;;;4.22;;
20615;SDS011;10467;42.338;23.552;2022-08-16T07:22:19;7.35;;;4.70;;
20615;SDS011;10467;42.338;23.552;2022-08-16T07:24:45;4.80;;;3.80;;
20615;SDS011;10467;42.338;23.552;2022-08-16T07:27:11;6.75;;;4.00;;
20615;SDS011;10467;42.338;23.552;2022-08-16T07:29:37;4.57;;;4.10;;
20615;SDS011;10467;42.338;23.552;2022-08-16T07:32:04;5.72;;;4.60;;
20615;SDS011;10467;42.338;23.552;2022-08-16T07:34:30;4.72;;;3.90;;
20615;SDS011;10467;42.338;23.552;2022-08-16T07:36:56;7.05;;;4.15;;
20615;SDS011;10467;42.338;23.552;2022-08-16T07:39:23;6.38;;;4.15;;
20615;SDS011;10467;42.338;23.552;2022-08-16T07:41:49;8.65;;;7.53;;
20615;SDS011;10467;42.338;23.552;2022-08-16T07:44:14;5.88;;;4.10;;
20615;SDS011;10467;42.338;23.552;2022-08-16T07:46:40;5.32;;;3.97;;
20615;SDS011;10467;42.338;23.552;2022-08-16T07:49:05;3.95;;;3.58;;
20615;SDS011;10467;42.338;23.552;2022-08-16T07:51:31;7.18;;;4.00;;
20615;SDS011;10467;42.338;23.552;2022-08-16T07:53:59;7.50;;;4.63;;
20615;SDS011;10467;42.338;23.552;2022-08-16T07:56:27;4.43;;;3.55;;
20615;SDS011;10467;42.338;23.552;2022-08-16T07:58:53;6.85;;;3.88;;
20615;SDS011;10467;42.338;23.552;2022-08-16T08:01:19;4.72;;;3.55;;
20615;SDS011;10467;42.338;23.552;2022-08-16T08:03:47;5.63;;;3.45;;
20615;SDS011;10467;42.338;23.552;2022-08-16T08:06:13;4.20;;;3.60;;
20615;SDS011;10467;42.338;23.552;2022-08-16T08:08:39;3.80;;;2.67;;
20615;SDS011;10467;42.338;23.552;2022-08-16T08:11:07;3.80;;;3.40;;
20615;SDS011;10467;42.338;23.552;2022-08-16T08:13:32;3.40;;;2.88;;
20615;SDS011;10467;42.338;23.552;2022-08-16T08:15:58;3.83;;;2.83;;
20615;SDS011;10467;42.338;23.552;2022-08-16T08:18:23;3.92;;;3.20;;
20615;SDS011;10467;42.338;23.552;2022-08-16T08:20:49;4.05;;;3.35;;
20615;SDS011;10467;42.338;23.552;2022-08-16T08:23:14;3.67;;;3.03;;
20615;SDS011;10467;42.338;23.552;2022-08-16T08:25:41;7.63;;;2.78;;
20615;SDS011;10467;42.338;23.552;2022-08-16T08:28:07;3.40;;;3.10;;
20615;SDS011;10467;42.338;23.552;2022-08-16T08:30:34;4.18;;;3.30;;
20615;SDS011;10467;42.338;23.552;2022-08-16T08:33:00;3.47;;;2.85;;
20615;SDS011;10467;42.338;23.552;2022-08-16T08:35:26;3.08;;;2.78;;
20615;SDS011;10467;42.338;23.552;2022-08-16T08:37:52;5.05;;;3.40;;
20615;SDS011;10467;42.338;23.552;2022-08-16T08:40:18;4.22;;;2.80;;
20615;SDS011;10467;42.338;23.552;2022-08-16T08:42:43;3.50;;;2.75;;
20615;SDS011;10467;42.338;23.552;2022-08-16T08:45:10;3.83;;;3.45;;
20615;SDS011;10467;42.338;23.552;2022-08-16T08:47:37;3.30;;;2.60;;
20615;SDS011;10467;42.338;23.552;2022-08-16T08:50:04;3.20;;;2.90;;
20615;SDS011;10467;42.338;23.552;2022-08-16T08:52:30;3.33;;;3.03;;
20615;SDS011;10467;42.338;23.552;2022-08-16T08:54:56;3.17;;;2.88;;
20615;SDS011;10467;42.338;23.552;2022-08-16T08:57:22;6.75;;;3.47;;
20615;SDS011;10467;42.338;23.552;2022-08-16T08:59:48;3.80;;;2.85;;
20615;SDS011;10467;42.338;23.552;2022-08-16T09:02:14;3.65;;;3.30;;
20615;SDS011;10467;42.338;23.552;2022-08-16T09:04:41;3.90;;;3.50;;
20615;SDS011;10467;42.338;23.552;2022-08-16T09:07:07;3.95;;;3.38;;
20615;SDS011;10467;42.338;23.552;2022-08-16T09:09:33;5.25;;;4.18;;
20615;SDS011;10467;42.338;23.552;2022-08-16T09:11:59;3.55;;;3.25;;
20615;SDS011;10467;42.338;23.552;2022-08-16T09:14:26;4.25;;;3.20;;
20615;SDS011;10467;42.338;23.552;2022-08-16T09:16:52;4.70;;;3.28;;
20615;SDS011;10467;42.338;23.552;2022-08-16T09:19:17;4.25;;;3.20;;
20615;SDS011;10467;42.338;23.552;2022-08-16T09:21:43;5.10;;;3.50;;
20615;SDS011;10467;42.338;23.552;2022-08-16T09:24:08;4.97;;;3.35;;
20615;SDS011;10467;42.338;23.552;2022-08-16T09:26:34;4.28;;;3.22;;
20615;SDS011;10467;42.338;23.552;2022-08-16T09:29:00;8.15;;;3.15;;
20615;SDS011;10467;42.338;23.552;2022-08-16T09:31:25;3.97;;;3.10;;
20615;SDS011;10467;42.338;23.552;2022-08-16T09:33:51;4.15;;;3.42;;
20615;SDS011;10467;42.338;23.552;2022-08-16T09:36:19;4.68;;;4.15;;
20615;SDS011;10467;42.338;23.552;2022-08-16T09:38:45;5.70;;;3.40;;
20615;SDS011;10467;42.338;23.552;2022-08-16T09:41:11;3.42;;;3.13;;
20615;SDS011;10467;42.338;23.552;2022-08-16T09:43:38;3.55;;;3.10;;
20615;SDS011;10467;42.338;23.552;2022-08-16T09:46:04;6.28;;;3.85;;
20615;SDS011;10467;42.338;23.552;2022-08-16T09:48:32;4.68;;;3.75;;
20615;SDS011;10467;42.338;23.552;2022-08-16T09:51:06;3.75;;;3.28;;
20615;SDS011;10467;42.338;23.552;2022-08-16T09:53:33;4.93;;;3.60;;
20615;SDS011;10467;42.338;23.552;2022-08-16T09:55:59;4.40;;;3.58;;
20615;SDS011;10467;42.338;23.552;2022-08-16T09:58:26;5.20;;;3.78;;
20615;SDS011;10467;42.338;23.552;2022-08-16T10:00:52;3.78;;;3.33;;
20615;SDS011;10467;42.338;23.552;2022-08-16T10:03:18;4.28;;;3.65;;
20615;SDS011;10467;42.338;23.552;2022-08-16T10:05:45;6.40;;;3.47;;
20615;SDS011;10467;42.338;23.552;2022-08-16T10:08:11;3.80;;;3.40;;
20615;SDS011;10467;42.338;23.552;2022-08-16T10:10:38;4.30;;;3.50;;
20615;SDS011;10467;42.338;23.552;2022-08-16T10:13:06;4.50;;;3.50;;
20615;SDS011;10467;42.338;23.552;2022-08-16T10:15:42;4.47;;;3.20;;
20615;SDS011;10467;42.338;23.552;2022-08-16T10:18:11;4.20;;;3.55;;
20615;SDS011;10467;42.338;23.552;2022-08-16T10:20:42;5.78;;;3.58;;
20615;SDS011;10467;42.338;23.552;2022-08-16T10:23:10;4.55;;;3.47;;
20615;SDS011;10467;42.338;23.552;2022-08-16T10:25:40;3.90;;;3.17;;
20615;SDS011;10467;42.338;23.552;2022-08-16T10:28:07;4.80;;;3.42;;
20615;SDS011;10467;42.338;23.552;2022-08-16T10:30:36;5.15;;;3.25;;
20615;SDS011;10467;42.338;23.552;2022-08-16T10:33:03;3.90;;;3.22;;
20615;SDS011;10467;42.338;23.552;2022-08-16T10:35:29;3.70;;;3.30;;
20615;SDS011;10467;42.338;23.552;2022-08-16T10:37:55;3.25;;;2.88;;
20615;SDS011;10467;42.338;23.552;2022-08-16T10:40:21;3.63;;;2.90;;
20615;SDS011;10467;42.338;23.552;2022-08-16T10:42:46;4.40;;;3.05;;
20615;SDS011;10467;42.338;23.552;2022-08-16T10:45:13;4.55;;;3.47;;
20615;SDS011;10467;42.338;23.552;2022-08-16T10:47:40;3.22;;;2.80;;
20615;SDS011;10467;42.338;23.552;2022-08-16T10:50:06;3.30;;;3.00;;
20615;SDS011;10467;42.338;23.552;2022-08-16T10:52:32;4.30;;;2.95;;
20615;SDS011;10467;42.338;23.552;2022-08-16T10:54:58;3.35;;;3.00;;
20615;SDS011;10467;42.338;23.552;2022-08-16T10:57:25;2.97;;;2.63;;
20615;SDS011;10467;42.338;23.552;2022-08-16T10:59:52;3.88;;;2.72;;
20615;SDS011;10467;42.338;23.552;2022-08-16T11:02:18;4.40;;;2.90;;
20615;SDS011;10467;42.338;23.552;2022-08-16T11:04:44;5.55;;;2.70;;
20615;SDS011;10467;42.338;23.552;2022-08-16T11:07:10;2.42;;;2.22;;
20615;SDS011;10467;42.338;23.552;2022-08-16T11:09:36;4.25;;;2.60;;
20615;SDS011;10467;42.338;23.552;2022-08-16T11:12:02;3.15;;;2.50;;
20615;SDS011;10467;42.338;23.552;2022-08-16T11:14:30;3.33;;;2.72;;
20615;SDS011;10467;42.338;23.552;2022-08-16T11:16:57;3.50;;;2.67;;
20615;SDS011;10467;42.338;23.552;2022-08-16T11:19:24;3.05;;;2.53;;
20615;SDS011;10467;42.338;23.552;2022-08-16T11:21:49;3.45;;;2.80;;
20615;SDS011;10467;42.338;23.552;2022-08-16T11:24:15;3.28;;;2.65;;
20615;SDS011;10467;42.338;23.552;2022-08-16T11:26:41;3.38;;;2.90;;
20615;SDS011;10467;42.338;23.552;2022-08-16T11:29:06;4.20;;;2.83;;
20615;SDS011;10467;42.338;23.552;2022-08-16T11:31:33;11.18;;;3.75;;
20615;SDS011;10467;42.338;23.552;2022-08-16T11:33:59;6.70;;;3.33;;
20615;SDS011;10467;42.338;23.552;2022-08-16T11:36:25;3.60;;;3.17;;
20615;SDS011;10467;42.338;23.552;2022-08-16T11:38:51;5.80;;;3.45;;
20615;SDS011;10467;42.338;23.552;2022-08-16T11:41:16;4.90;;;3.17;;
20615;SDS011;10467;42.338;23.552;2022-08-16T11:43:42;4.95;;;3.75;;
20615;SDS011;10467;42.338;23.552;2022-08-16T11:46:10;5.15;;;3.10;;
20615;SDS011;10467;42.338;23.552;2022-08-16T11:48:38;3.50;;;2.60;;
20615;SDS011;10467;42.338;23.552;2022-08-16T11:51:04;3.75;;;3.35;;
20615;SDS011;10467;42.338;23.552;2022-08-16T11:53:30;4.97;;;3.20;;
20615;SDS011;10467;42.338;23.552;2022-08-16T11:55:57;4.85;;;3.25;;
20615;SDS011;10467;42.338;23.552;2022-08-16T11:58:24;5.25;;;3.33;;
20615;SDS011;10467;42.338;23.552;2022-08-16T12:00:52;4.68;;;3.40;;
20615;SDS011;10467;42.338;23.552;2022-08-16T12:03:19;3.58;;;3.13;;
20615;SDS011;10467;42.338;23.552;2022-08-16T12:05:47;4.50;;;3.20;;
20615;SDS011;10467;42.338;23.552;2022-08-16T12:08:13;4.32;;;3.58;;
20615;SDS011;10467;42.338;23.552;2022-08-16T12:10:40;4.75;;;3.40;;
20615;SDS011;10467;42.338;23.552;2022-08-16T12:13:09;4.15;;;3.10;;
20615;SDS011;10467;42.338;23.552;2022-08-16T12:15:35;4.90;;;3.05;;
20615;SDS011;10467;42.338;23.552;2022-08-16T12:18:02;3.85;;;3.45;;
20615;SDS011;10467;42.338;23.552;2022-08-16T12:20:29;8.00;;;3.63;;
20615;SDS011;10467;42.338;23.552;2022-08-16T12:22:56;4.53;;;3.55;;
20615;SDS011;10467;42.338;23.552;2022-08-16T12:25:24;3.95;;;3.50;;
20615;SDS011;10467;42.338;23.552;2022-08-16T12:27:51;3.45;;;3.15;;
20615;SDS011;10467;42.338;23.552;2022-08-16T12:30:20;4.22;;;3.50;;
20615;SDS011;10467;42.338;23.552;2022-08-16T12:32:49;5.40;;;4.10;;
20615;SDS011;10467;42.338;23.552;2022-08-16T12:35:16;3.80;;;3.13;;
20615;SDS011;10467;42.338;23.552;2022-08-16T12:37:44;4.55;;;3.60;;
20615;SDS011;10467;42.338;23.552;2022-08-16T12:40:12;4.60;;;3.80;;
20615;SDS011;10467;42.338;23.552;2022-08-16T12:42:44;4.32;;;3.28;;
20615;SDS011;10467;42.338;23.552;2022-08-16T12:45:11;4.10;;;3.13;;
20615;SDS011;10467;42.338;23.552;2022-08-16T12:47:38;3.83;;;3.33;;
20615;SDS011;10467;42.338;23.552;2022-08-16T12:50:39;6.55;;;4.65;;
20615;SDS011;10467;42.338;23.552;2022-08-16T12:53:05;4.97;;;3.67;;
20615;SDS011;10467;42.338;23.552;2022-08-16T12:55:30;4.05;;;3.38;;
20615;SDS011;10467;42.338;23.552;2022-08-16T12:57:56;4.28;;;3.30;;
20615;SDS011;10467;42.338;23.552;2022-08-16T13:00:23;3.38;;;3.05;;
20615;SDS011;10467;42.338;23.552;2022-08-16T13:02:54;5.40;;;3.50;;
20615;SDS011;10467;42.338;23.552;2022-08-16T13:05:23;4.25;;;3.42;;
20615;SDS011;10467;42.338;23.552;2022-08-16T13:07:49;5.30;;;4.10;;
20615;SDS011;10467;42.338;23.552;2022-08-16T13:10:16;4.78;;;3.65;;
20615;SDS011;10467;42.338;23.552;2022-08-16T13:12:43;7.95;;;4.50;;
20615;SDS011;10467;42.338;23.552;2022-08-16T13:15:14;6.07;;;3.90;;
20615;SDS011;10467;42.338;23.552;2022-08-16T13:17:40;5.07;;;3.50;;
20615;SDS011;10467;42.338;23.552;2022-08-16T13:20:09;4.93;;;3.55;;
20615;SDS011;10467;42.338;23.552;2022-08-16T13:22:39;4.20;;;3.22;;
20615;SDS011;10467;42.338;23.552;2022-08-16T13:25:07;3.33;;;2.92;;
20615;SDS011;10467;42.338;23.552;2022-08-16T13:27:34;5.75;;;3.60;;
20615;SDS011;10467;42.338;23.552;2022-08-16T13:30:00;5.65;;;3.03;;
20615;SDS011;10467;42.338;23.552;2022-08-16T13:32:25;3.92;;;3.47;;
20615;SDS011;10467;42.338;23.552;2022-08-16T13:34:51;3.80;;;3.40;;
20615;SDS011;10467;42.338;23.552;2022-08-16T13:37:16;5.68;;;3.65;;
20615;SDS011;10467;42.338;23.552;2022-08-16T13:39:42;3.45;;;3.13;;
20615;SDS011;10467;42.338;23.552;2022-08-16T13:42:10;3.75;;;3.20;;
20615;SDS011;10467;42.338;23.552;2022-08-16T13:44:36;6.55;;;3.75;;
20615;SDS011;10467;42.338;23.552;2022-08-16T13:47:02;3.35;;;2.97;;
20615;SDS011;10467;42.338;23.552;2022-08-16T13:49:28;5.93;;;3.30;;
20615;SDS011;10467;42.338;23.552;2022-08-16T13:51:54;3.15;;;2.70;;
20615;SDS011;10467;42.338;23.552;2022-08-16T13:54:19;4.05;;;2.92;;
20615;SDS011;10467;42.338;23.552;2022-08-16T13:56:44;3.72;;;3.17;;
20615;SDS011;10467;42.338;23.552;2022-08-16T13:59:11;4.20;;;2.60;;
20615;SDS011;10467;42.338;23.552;2022-08-16T14:01:38;9.30;;;2.42;;
20615;SDS011;10467;42.338;23.552;2022-08-16T14:04:04;2.42;;;2.20;;
20615;SDS011;10467;42.338;23.552;2022-08-16T14:06:30;6.45;;;2.17;;
20615;SDS011;10467;42.338;23.552;2022-08-16T14:08:55;2.45;;;2.00;;
20615;SDS011;10467;42.338;23.552;2022-08-16T14:11:21;3.30;;;2.28;;
20615;SDS011;10467;42.338;23.552;2022-08-16T14:13:47;1.85;;;1.73;;
20615;SDS011;10467;42.338;23.552;2022-08-16T14:16:12;3.22;;;2.90;;
20615;SDS011;10467;42.338;23.552;2022-08-16T14:18:38;3.00;;;2.00;;
20615;SDS011;10467;42.338;23.552;2022-08-16T14:21:04;3.10;;;2.17;;
20615;SDS011;10467;42.338;23.552;2022-08-16T14:23:30;2.47;;;2.28;;
20615;SDS011;10467;42.338;23.552;2022-08-16T14:25:55;3.60;;;2.50;;
20615;SDS011;10467;42.338;23.552;2022-08-16T14:28:22;3.05;;;2.30;;
20615;SDS011;10467;42.338;23.552;2022-08-16T14:30:47;4.57;;;2.70;;
20615;SDS011;10467;42.338;23.552;2022-08-16T14:33:17;3.22;;;2.40;;
20615;SDS011;10467;42.338;23.552;2022-08-16T14:38:12;3.83;;;3.00;;
20615;SDS011;10467;42.338;23.552;2022-08-16T14:40:37;8.65;;;3.47;;
20615;SDS011;10467;42.338;23.552;2022-08-16T14:43:03;3.88;;;3.10;;